Time;durP1;ratioP1;P1;durP2;ratioP2;P2;SDS_P1;SDS_P2;PMS_P1;PMS_P2;Temp;Humidity;BMP_temperature;BMP_pressure;BME280_temperature;BME280_humidity;BME280_pressure;Samples;Min_cycle;Max_cycle;Signal;HPM_P1;HPM_P2
2023/05/30 00:01:10;;;;;;;8.05;6.05;;;;;;;19.03;86.23;100273.78;5074670;28;20046;-76
2023/05/30 00:03:36;;;;;;;8.73;5.93;;;;;;;19.04;86.16;100270.03;5086749;28;20025;-76
2023/05/30 00:06:02;;;;;;;5.85;5.25;;;;;;;19.06;86.01;100273.38;5074191;28;20024;-76
2023/05/30 00:08:27;;;;;;;7.07;5.60;;;;;;;19.06;86.27;100262.50;5079678;28;20107;-76
2023/05/30 00:10:53;;;;;;;8.07;5.97;;;;;;;18.99;86.40;100253.44;5073045;28;20538;-76
2023/05/30 00:13:21;;;;;;;19.45;6.63;;;;;;;19.03;86.98;100262.06;5087642;28;20054;-76
2023/05/30 00:15:47;;;;;;;26.15;7.32;;;;;;;19.02;87.36;100260.38;5085377;28;20012;-76
2023/05/30 00:18:13;;;;;;;32.33;7.60;;;;;;;18.99;87.87;100261.59;5073478;28;20043;-76
2023/05/30 00:20:39;;;;;;;21.08;7.90;;;;;;;19.02;87.80;100263.09;5090410;28;20076;-76
2023/05/30 00:23:04;;;;;;;12.95;7.35;;;;;;;19.00;88.04;100259.72;5083684;28;20035;-75
2023/05/30 00:25:32;;;;;;;10.20;7.38;;;;;;;18.98;88.23;100265.34;5081054;28;20045;-76
2023/05/30 00:27:58;;;;;;;13.27;6.03;;;;;;;18.99;88.31;100252.63;5073116;28;20025;-76
2023/05/30 00:30:25;;;;;;;8.70;6.45;;;;;;;18.92;88.53;100255.22;5079912;28;20043;-76
2023/05/30 00:32:50;;;;;;;10.10;6.78;;;;;;;18.90;88.79;100243.72;5084795;28;20493;-76
2023/05/30 00:35:16;;;;;;;12.38;6.80;;;;;;;18.95;88.80;100254.00;5076289;28;20024;-76
2023/05/30 00:37:41;;;;;;;9.20;6.25;;;;;;;18.92;88.77;100248.94;5084478;28;20533;-76
2023/05/30 00:40:08;;;;;;;7.40;6.35;;;;;;;18.89;88.77;100247.44;5082045;28;20032;-76
2023/05/30 00:42:33;;;;;;;10.32;6.43;;;;;;;18.87;89.08;100238.66;5085187;28;20042;-76
2023/05/30 00:44:59;;;;;;;7.88;6.63;;;;;;;18.89;89.55;100250.16;5084670;28;20103;-76
2023/05/30 00:47:25;;;;;;;9.43;6.75;;;;;;;18.92;89.51;100251.66;5072739;28;20024;-76
2023/05/30 00:49:52;;;;;;;8.38;6.80;;;;;;;18.92;89.48;100248.94;5084205;28;20082;-76
2023/05/30 00:52:20;;;;;;;20.00;6.55;;;;;;;18.87;89.62;100245.97;5073732;28;20021;-76
2023/05/30 00:54:47;;;;;;;9.00;6.63;;;;;;;18.84;89.48;100243.63;5085591;28;20028;-76
2023/05/30 00:57:14;;;;;;;10.20;7.03;;;;;;;18.91;89.49;100252.69;5080884;28;20025;-76
2023/05/30 00:59:39;;;;;;;7.38;5.80;;;;;;;18.85;89.65;100237.16;5080275;28;20016;-76
2023/05/30 01:02:05;;;;;;;7.88;6.63;;;;;;;18.81;89.88;100244.84;5077444;28;20047;-76
2023/05/30 01:04:32;;;;;;;8.77;5.93;;;;;;;18.86;90.05;100253.25;5085676;28;20541;-76
2023/05/30 01:06:58;;;;;;;8.27;6.45;;;;;;;18.80;89.99;100234.16;5080159;28;20465;-75
2023/05/30 01:09:24;;;;;;;12.20;6.43;;;;;;;18.88;89.95;100253.06;5086565;28;20116;-76
2023/05/30 01:12:06;;;;;;;11.55;6.57;;;;;;;18.87;90.18;100252.25;5087954;28;20028;-76
2023/05/30 01:14:46;;;;;;;7.55;6.75;;;;;;;18.83;90.21;100248.22;5088713;28;20066;-76
2023/05/30 01:17:23;;;;;;;8.32;6.18;;;;;;;18.84;90.20;100249.06;5073593;28;20129;-76
2023/05/30 01:20:07;;;;;;;7.30;6.13;;;;;;;18.86;90.44;100264.13;5079052;28;20695;-76
2023/05/30 01:23:10;;;;;;;7.43;6.60;;;;;;;18.85;90.72;100265.19;5074167;28;20032;-76
2023/05/30 01:26:00;;;;;;;10.38;6.63;;;;;;;18.83;90.60;100250.09;5085178;28;20120;-76
2023/05/30 01:28:29;;;;;;;8.65;6.97;;;;;;;18.85;90.56;100267.91;5082232;28;20028;-76
2023/05/30 01:30:57;;;;;;;8.63;6.65;;;;;;;18.87;90.85;100267.72;5083699;28;20028;-76
2023/05/30 01:33:24;;;;;;;7.97;6.53;;;;;;;18.85;90.59;100265.19;5083732;28;20184;-76
2023/05/30 01:35:50;;;;;;;9.70;6.10;;;;;;;18.81;90.82;100255.72;5086431;28;20016;-76
2023/05/30 01:38:22;;;;;;;8.88;7.07;;;;;;;18.84;90.93;100265.38;5077866;28;20021;-76
2023/05/30 01:40:51;;;;;;;7.63;6.65;;;;;;;18.79;90.94;100268.66;5073395;28;20059;-76
2023/05/30 01:43:39;;;;;;;8.35;7.15;;;;;;;18.85;91.53;100275.19;5072092;28;20441;-76
2023/05/30 01:46:20;;;;;;;7.68;6.55;;;;;;;18.83;91.05;100283.53;5071909;28;20026;-76
2023/05/30 01:49:01;;;;;;;10.65;6.75;;;;;;;18.81;90.64;100282.03;5079583;28;20020;-76
2023/05/30 01:51:34;;;;;;;10.25;7.57;;;;;;;18.81;90.06;100277.47;5085852;28;20103;-76
2023/05/30 01:54:03;;;;;;;7.82;7.03;;;;;;;18.81;90.08;100277.47;5078542;28;20031;-76
2023/05/30 01:56:31;;;;;;;8.50;6.90;;;;;;;18.74;89.96;100265.66;5072905;28;20130;-67
2023/05/30 01:58:58;;;;;;;9.27;6.68;;;;;;;18.83;89.94;100283.53;5071400;28;20482;-67
2023/05/30 02:01:28;;;;;;;9.23;6.25;;;;;;;18.80;89.65;100264.88;5083490;28;20059;-67
2023/05/30 02:03:54;;;;;;;8.77;5.63;;;;;;;18.84;89.22;100268.94;5088960;28;20474;-67
2023/05/30 02:06:19;;;;;;;8.43;6.32;;;;;;;18.75;89.37;100253.75;5089464;28;20028;-67
2023/05/30 02:08:45;;;;;;;8.85;6.30;;;;;;;18.80;89.36;100256.75;5078683;28;20052;-67
2023/05/30 02:11:10;;;;;;;8.35;5.90;;;;;;;18.82;89.05;100265.56;5074036;28;20028;-76
2023/05/30 02:13:36;;;;;;;7.72;5.95;;;;;;;18.82;89.34;100260.13;5079764;28;20020;-76
2023/05/30 02:16:01;;;;;;;7.57;6.57;;;;;;;18.88;89.17;100281.09;5087540;28;20032;-76
2023/05/30 02:18:27;;;;;;;8.63;7.25;;;;;;;18.82;89.70;100265.56;5084092;28;20544;-76
2023/05/30 02:20:55;;;;;;;9.32;7.20;;;;;;;18.84;89.77;100263.50;5074800;28;20386;-76
2023/05/30 02:23:21;;;;;;;11.20;5.93;;;;;;;18.86;89.66;100266.84;5088058;28;20023;-76
2023/05/30 02:25:46;;;;;;;8.95;6.43;;;;;;;18.85;89.33;100276.06;5082380;28;20482;-76
2023/05/30 02:28:12;;;;;;;9.40;6.55;;;;;;;18.86;89.52;100283.16;5075905;28;20065;-76
2023/05/30 02:30:38;;;;;;;15.32;6.75;;;;;;;18.80;89.80;100272.22;5086145;28;20027;-76
2023/05/30 02:33:03;;;;;;;11.18;6.53;;;;;;;18.86;89.63;100279.63;5081019;28;20056;-76
2023/05/30 02:35:29;;;;;;;9.80;7.25;;;;;;;18.70;89.89;100249.94;5082858;28;20531;-76
2023/05/30 02:37:54;;;;;;;8.40;6.43;;;;;;;18.82;89.68;100276.44;5081618;28;20030;-76
2023/05/30 02:40:20;;;;;;;11.13;6.47;;;;;;;18.82;89.99;100275.56;5071804;28;20016;-76
2023/05/30 02:42:49;;;;;;;10.02;6.47;;;;;;;18.71;90.04;100263.31;5075871;28;20052;-76
2023/05/30 02:45:15;;;;;;;8.98;6.78;;;;;;;18.80;89.81;100281.19;5084626;28;20070;-76
2023/05/30 02:47:40;;;;;;;7.05;6.00;;;;;;;18.66;90.00;100263.03;5081554;28;20649;-76
2023/05/30 02:50:07;;;;;;;11.82;6.22;;;;;;;18.75;89.63;100285.50;5078235;28;20056;-76
2023/05/30 02:52:32;;;;;;;8.27;6.47;;;;;;;18.79;89.46;100284.94;5085413;28;20028;-76
2023/05/30 02:54:58;;;;;;;8.52;7.00;;;;;;;18.78;89.43;100291.44;5085779;28;20030;-76
2023/05/30 02:57:24;;;;;;;9.05;6.28;;;;;;;18.77;89.45;100295.16;5076809;28;20024;-66
2023/05/30 02:59:49;;;;;;;9.15;6.68;;;;;;;18.74;89.54;100284.69;5067673;28;20025;-67
2023/05/30 03:02:15;;;;;;;11.75;6.63;;;;;;;18.74;89.19;100287.41;5066634;28;20040;-67
2023/05/30 03:04:45;;;;;;;7.65;6.43;;;;;;;18.78;89.43;100293.28;5066151;28;20074;-67
2023/05/30 03:07:17;;;;;;;7.97;5.50;;;;;;;18.69;89.31;100270.81;5075234;28;20115;-67
2023/05/30 03:09:43;;;;;;;10.20;6.03;;;;;;;18.69;89.26;100278.09;5068567;28;20043;-68
2023/05/30 03:12:08;;;;;;;7.68;6.07;;;;;;;18.81;89.43;100307.34;5076140;28;20029;-68
2023/05/30 03:14:34;;;;;;;9.57;5.70;;;;;;;18.81;89.21;100310.06;5071102;28;20039;-68
2023/05/30 03:16:59;;;;;;;10.63;6.50;;;;;;;18.74;88.95;100292.84;5076407;28;20024;-67
2023/05/30 03:19:25;;;;;;;7.95;6.40;;;;;;;18.76;88.87;100292.66;5083157;28;20040;-67
2023/05/30 03:21:51;;;;;;;7.93;5.25;;;;;;;18.85;88.57;100315.97;5076418;28;20024;-67
2023/05/30 03:24:16;;;;;;;8.52;6.22;;;;;;;18.84;88.71;100317.00;5067663;28;20036;-67
2023/05/30 03:26:42;;;;;;;7.18;6.00;;;;;;;18.79;88.61;100314.00;5066706;28;20360;-67
2023/05/30 03:29:08;;;;;;;9.57;6.20;;;;;;;18.72;88.21;100297.59;5068544;28;20631;-67
2023/05/30 03:31:35;;;;;;;7.28;5.47;;;;;;;18.80;87.74;100311.09;5071049;28;20081;-67
2023/05/30 03:34:01;;;;;;;9.05;6.22;;;;;;;18.82;87.46;100319.91;5075019;28;20056;-67
2023/05/30 03:36:27;;;;;;;7.82;6.10;;;;;;;18.82;87.35;100319.91;5080099;28;20036;-67
2023/05/30 03:38:56;;;;;;;8.38;6.07;;;;;;;18.83;86.78;100318.88;5071330;28;20044;-67
2023/05/30 03:41:22;;;;;;;8.85;5.50;;;;;;;18.82;86.60;100322.63;5063590;28;20063;-67
2023/05/30 03:43:47;;;;;;;9.57;5.53;;;;;;;18.84;86.77;100320.56;5068788;28;20028;-76
2023/05/30 03:46:16;;;;;;;8.57;5.63;;;;;;;18.87;87.05;100327.50;5082954;28;20075;-67
2023/05/30 03:48:44;;;;;;;6.97;5.63;;;;;;;18.88;86.98;100326.47;5069915;28;20055;-67
2023/05/30 03:51:11;;;;;;;7.78;5.72;;;;;;;18.79;87.30;100312.13;5072022;28;20033;-67
2023/05/30 03:53:36;;;;;;;6.63;5.28;;;;;;;18.88;87.03;100329.19;5073215;28;20125;-67
2023/05/30 03:56:02;;;;;;;9.70;5.85;;;;;;;18.88;87.44;100324.59;5079551;28;20465;-67
2023/05/30 03:58:28;;;;;;;8.80;5.75;;;;;;;18.88;87.14;100321.88;5083953;28;20503;-67
2023/05/30 04:00:53;;;;;;;7.47;5.75;;;;;;;18.83;87.29;100310.72;5070413;28;20045;-67
2023/05/30 04:03:19;;;;;;;9.25;5.68;;;;;;;18.93;86.99;100333.00;5070696;28;20032;-76
2023/05/30 04:05:48;;;;;;;7.28;5.32;;;;;;;18.85;87.56;100316.81;5076279;28;20024;-76
2023/05/30 04:08:14;;;;;;;7.90;5.50;;;;;;;18.90;87.42;100317.09;5089444;28;20064;-76
2023/05/30 04:10:40;;;;;;;7.78;5.93;;;;;;;18.84;88.07;100312.41;5076386;28;20545;-76
2023/05/30 04:13:06;;;;;;;7.50;5.32;;;;;;;18.91;88.65;100320.66;5083817;28;20753;-76
2023/05/30 04:15:32;;;;;;;6.65;5.75;;;;;;;18.90;89.30;100324.41;5091189;28;20051;-76
2023/05/30 04:18:00;;;;;;;8.68;6.03;;;;;;;18.95;90.18;100328.25;5088147;28;20028;-76
2023/05/30 04:20:25;;;;;;;8.48;5.32;;;;;;;18.95;90.36;100333.69;5079077;28;20028;-76
2023/05/30 04:22:51;;;;;;;6.75;6.05;;;;;;;18.99;90.14;100340.44;5083808;28;20105;-67
2023/05/30 04:25:17;;;;;;;7.18;5.10;;;;;;;18.91;90.28;100318.78;5070865;28;20170;-67
2023/05/30 04:27:43;;;;;;;7.05;5.72;;;;;;;19.04;91.63;100329.84;5070957;28;20036;-68
2023/05/30 04:30:10;;;;;;;8.95;6.07;;;;;;;19.08;92.08;100327.56;5070515;28;20131;-68
2023/05/30 04:32:36;;;;;;;6.45;5.00;;;;;;;19.06;91.92;100327.75;5066712;28;20021;-68
2023/05/30 04:35:07;;;;;;;8.32;5.60;;;;;;;19.08;91.41;100322.13;5064892;28;20059;-68
2023/05/30 04:37:33;;;;;;;7.55;5.50;;;;;;;19.11;90.90;100319.91;5067197;28;20479;-67
2023/05/30 04:39:59;;;;;;;6.95;5.07;;;;;;;19.14;90.26;100321.38;5069447;28;20115;-66
2023/05/30 04:42:28;;;;;;;9.00;5.97;;;;;;;19.01;89.81;100302.19;5078775;28;20040;-66
2023/05/30 04:44:55;;;;;;;8.65;5.57;;;;;;;19.15;90.25;100321.19;5073001;28;20486;-66
2023/05/30 04:47:24;;;;;;;7.88;5.90;;;;;;;19.14;91.05;100315.94;5069233;28;20036;-66
2023/05/30 04:49:53;;;;;;;7.65;5.90;;;;;;;19.14;92.04;100313.22;5084162;28;20062;-66
2023/05/30 04:52:19;;;;;;;7.57;5.78;;;;;;;19.25;93.08;100318.19;5087827;28;20024;-66
2023/05/30 04:54:45;;;;;;;8.00;5.57;;;;;;;19.16;94.21;100305.72;5090524;28;20401;-66
2023/05/30 04:57:10;;;;;;;7.53;5.50;;;;;;;19.24;94.43;100320.06;5068818;28;20020;-66
2023/05/30 04:59:36;;;;;;;10.68;6.35;;;;;;;19.21;95.78;100308.72;5069625;28;20514;-66
2023/05/30 05:02:01;;;;;;;12.93;6.03;;;;;;;19.33;96.64;100320.81;5080017;28;20052;-66
2023/05/30 05:04:26;;;;;;;7.20;5.75;;;;;;;19.37;98.01;100325.69;5081424;28;20025;-66
2023/05/30 05:06:52;;;;;;;12.40;6.25;;;;;;;19.42;99.40;100325.13;5074759;28;20020;-66
2023/05/30 05:09:20;;;;;;;11.20;5.93;;;;;;;19.46;100.00;100327.28;5070613;28;20023;-66
2023/05/30 05:11:46;;;;;;;8.38;5.55;;;;;;;19.42;99.67;100323.25;5070533;28;20040;-66
2023/05/30 05:14:11;;;;;;;9.02;6.47;;;;;;;19.41;98.73;100324.28;5077553;28;20394;-66
2023/05/30 05:16:37;;;;;;;11.32;5.93;;;;;;;19.40;99.34;100316.31;5076396;28;20016;-66
2023/05/30 05:19:02;;;;;;;8.48;5.68;;;;;;;19.45;99.87;100322.03;5079681;28;20101;-66
2023/05/30 05:21:27;;;;;;;15.52;6.57;;;;;;;19.48;99.99;100318.94;5087516;28;20461;-77
2023/05/30 05:23:53;;;;;;;9.43;6.05;;;;;;;19.52;100.00;100322.94;5084468;28;20028;-78
2023/05/30 05:26:18;;;;;;;6.72;5.50;;;;;;;19.50;99.99;100316.84;5071610;28;20082;-78
2023/05/30 05:28:45;;;;;;;7.60;5.63;;;;;;;19.57;99.57;100332.22;5084336;28;20605;-78
2023/05/30 05:31:10;;;;;;;7.90;6.65;;;;;;;19.61;100.00;100335.41;5078384;28;20044;-77
2023/05/30 05:33:36;;;;;;;7.53;6.35;;;;;;;19.61;100.00;100328.06;5078861;28;20036;-77
2023/05/30 05:36:02;;;;;;;8.90;6.43;;;;;;;19.64;100.00;100335.84;5089861;28;20016;-78
2023/05/30 05:38:28;;;;;;;11.63;6.55;;;;;;;19.69;100.00;100335.28;5070501;28;20434;-77
2023/05/30 05:40:54;;;;;;;11.07;6.93;;;;;;;19.74;100.00;100343.72;5079659;28;20032;-77
2023/05/30 05:43:19;;;;;;;8.55;6.57;;;;;;;19.73;100.00;100337.41;5086245;28;20020;-77
2023/05/30 05:45:45;;;;;;;11.55;6.18;;;;;;;19.77;100.00;100344.16;5074348;28;20026;-77
2023/05/30 05:48:10;;;;;;;9.20;7.00;;;;;;;19.80;100.00;100342.94;5083330;28;20376;-77
2023/05/30 05:50:36;;;;;;;9.38;6.68;;;;;;;19.82;100.00;100347.16;5086173;28;20027;-77
2023/05/30 05:53:01;;;;;;;11.27;7.10;;;;;;;19.84;100.00;100336.94;5077356;28;20028;-77
2023/05/30 05:55:27;;;;;;;9.32;7.15;;;;;;;19.84;100.00;100345.09;5077591;28;20029;-76
2023/05/30 05:57:52;;;;;;;10.63;6.95;;;;;;;19.88;100.00;100342.81;5080043;28;20089;-76
2023/05/30 06:00:18;;;;;;;9.63;6.88;;;;;;;19.87;100.00;100349.28;5081549;28;20016;-76
2023/05/30 06:02:43;;;;;;;9.95;6.97;;;;;;;19.91;100.00;100343.28;5087009;28;20031;-77
2023/05/30 06:05:09;;;;;;;9.95;7.10;;;;;;;19.91;100.00;100348.72;5071157;28;20020;-77
2023/05/30 06:07:35;;;;;;;8.70;6.65;;;;;;;19.83;100.00;100340.66;5071148;28;20394;-77
2023/05/30 06:10:00;;;;;;;8.52;7.28;;;;;;;19.83;100.00;100346.09;5071959;28;20024;-77
2023/05/30 06:12:26;;;;;;;9.77;7.65;;;;;;;19.89;100.00;100355.38;5079110;28;20028;-77
2023/05/30 06:14:51;;;;;;;10.75;7.65;;;;;;;19.87;100.00;100358.28;5081456;28;20111;-76
2023/05/30 06:17:16;;;;;;;12.40;8.50;;;;;;;19.87;100.00;100354.75;5077872;28;20028;-81
2023/05/30 06:19:42;;;;;;;10.20;8.20;;;;;;;19.84;100.00;100355.97;5078934;28;20039;-77
2023/05/30 06:22:10;;;;;;;11.30;8.25;;;;;;;19.85;100.00;100373.13;5070253;28;20127;-77
2023/05/30 06:24:36;;;;;;;10.63;8.43;;;;;;;19.72;100.00;100352.06;5082895;28;20051;-77
2023/05/30 06:27:01;;;;;;;11.15;7.82;;;;;;;19.74;100.00;100368.22;5086442;28;20032;-78
2023/05/30 06:29:28;;;;;;;13.18;8.30;;;;;;;19.79;100.00;100377.47;5070037;28;20510;-77
2023/05/30 06:31:54;;;;;;;11.25;7.85;;;;;;;19.76;100.00;100369.69;5078496;28;20028;-77
2023/05/30 06:34:19;;;;;;;13.20;7.75;;;;;;;19.77;100.00;100382.25;5076556;28;20124;-77
2023/05/30 06:36:44;;;;;;;8.27;7.30;;;;;;;19.82;100.00;100381.69;5082590;28;21516;-77
2023/05/30 06:39:15;;;;;;;10.32;8.23;;;;;;;19.73;100.00;100380.09;5082577;28;20554;-78
2023/05/30 06:41:43;;;;;;;15.60;8.50;;;;;;;19.77;100.00;100393.16;5080313;28;20073;-77
2023/05/30 06:44:09;;;;;;;12.40;7.75;;;;;;;19.75;100.00;100387.06;5070085;28;20540;-77
2023/05/30 06:46:35;;;;;;;14.10;8.35;;;;;;;19.73;100.00;100385.56;5080595;28;20466;-77
2023/05/30 06:49:00;;;;;;;11.13;7.95;;;;;;;19.76;100.00;100393.34;5071898;28;20031;-77
2023/05/30 06:51:26;;;;;;;10.32;8.20;;;;;;;19.75;100.00;100395.25;5079422;28;20028;-78
2023/05/30 06:53:51;;;;;;;12.07;8.35;;;;;;;19.74;100.00;100393.53;5070055;28;20402;-77
2023/05/30 06:56:17;;;;;;;10.27;8.05;;;;;;;19.78;100.00;100394.00;5068628;28;20095;-77
2023/05/30 06:58:43;;;;;;;12.32;8.02;;;;;;;19.75;100.00;100397.09;5076038;28;20020;-77
2023/05/30 07:01:08;;;;;;;10.85;7.68;;;;;;;19.77;100.00;100398.59;5072057;28;20033;-77
2023/05/30 07:03:34;;;;;;;9.68;7.95;;;;;;;19.79;100.00;100395.69;5079486;28;20033;-77
2023/05/30 07:06:00;;;;;;;8.57;7.20;;;;;;;19.72;100.00;100384.72;5078461;28;20032;-77
2023/05/30 07:08:26;;;;;;;9.45;7.60;;;;;;;19.74;100.00;100384.53;5074916;28;20506;-77
2023/05/30 07:10:51;;;;;;;9.90;7.90;;;;;;;19.79;100.00;100407.41;5077935;28;20024;-77
2023/05/30 07:13:17;;;;;;;11.15;8.05;;;;;;;19.80;100.00;100406.38;5080075;28;20020;-77
2023/05/30 07:15:42;;;;;;;9.10;7.70;;;;;;;19.77;100.00;100406.75;5075039;28;20032;-77
2023/05/30 07:18:08;;;;;;;9.88;7.20;;;;;;;19.73;100.00;100408.19;5075172;28;20040;-77
2023/05/30 07:20:33;;;;;;;15.13;7.47;;;;;;;19.75;100.00;100403.41;5078492;28;20032;-77
2023/05/30 07:22:59;;;;;;;8.63;7.15;;;;;;;19.78;100.00;100415.78;5077857;28;20042;-77
2023/05/30 07:25:24;;;;;;;9.85;7.60;;;;;;;19.69;100.00;100396.00;5074697;28;20035;-77
2023/05/30 07:27:50;;;;;;;12.38;7.00;;;;;;;19.77;100.00;100412.19;5077578;28;20146;-77
2023/05/30 07:30:15;;;;;;;11.10;7.30;;;;;;;19.78;100.00;100411.19;5073393;28;20024;-77
2023/05/30 07:32:41;;;;;;;9.50;7.15;;;;;;;19.75;100.00;100417.00;5087225;28;20165;-77
2023/05/30 07:35:06;;;;;;;10.38;6.53;;;;;;;19.81;100.00;100421.69;5076275;28;20029;-77
2023/05/30 07:37:34;;;;;;;10.55;7.03;;;;;;;19.71;100.00;100409.41;5075268;28;20025;-76
2023/05/30 07:40:04;;;;;;;9.98;7.60;;;;;;;19.81;100.00;100429.88;5076405;28;20020;-77
2023/05/30 07:42:30;;;;;;;9.85;6.78;;;;;;;19.74;100.00;100419.94;5084386;28;20087;-77
2023/05/30 07:44:55;;;;;;;10.90;7.22;;;;;;;19.82;100.00;100439.72;5086993;28;20483;-76
2023/05/30 07:47:20;;;;;;;7.53;6.30;;;;;;;19.80;100.00;100439.03;5074745;28;20024;-66
2023/05/30 07:49:46;;;;;;;9.30;6.68;;;;;;;19.81;100.00;100438.03;5065982;28;20029;-66
2023/05/30 07:52:12;;;;;;;9.65;7.18;;;;;;;19.84;100.00;100455.84;5075189;28;20077;-77
2023/05/30 07:54:37;;;;;;;13.05;7.05;;;;;;;19.85;100.00;100452.09;5078662;28;20073;-77
2023/05/30 07:57:03;;;;;;;8.40;7.03;;;;;;;19.86;100.00;100453.75;5079779;28;20012;-77
2023/05/30 07:59:28;;;;;;;7.35;6.45;;;;;;;19.84;99.38;100455.84;5082508;28;20036;-66
2023/05/30 08:01:54;;;;;;;8.48;6.90;;;;;;;19.84;98.94;100459.44;5078290;28;20037;-66
2023/05/30 08:04:19;;;;;;;9.18;6.82;;;;;;;19.77;98.79;100442.13;5074893;28;20023;-66
2023/05/30 08:06:45;;;;;;;8.55;7.18;;;;;;;19.84;98.82;100450.41;5066089;28;20025;-66
2023/05/30 08:09:10;;;;;;;12.30;7.28;;;;;;;19.77;99.12;100442.13;5067439;28;20024;-66
2023/05/30 08:11:36;;;;;;;11.05;7.43;;;;;;;19.88;99.35;100452.56;5068573;28;20044;-66
2023/05/30 08:14:03;;;;;;;11.15;7.22;;;;;;;19.86;99.89;100451.91;5069566;28;20033;-66
2023/05/30 08:16:29;;;;;;;7.97;7.05;;;;;;;19.91;100.00;100456.78;5070634;28;20418;-66
2023/05/30 08:18:55;;;;;;;9.90;7.38;;;;;;;19.89;100.00;100459.69;5065491;28;20658;-67
2023/05/30 08:21:21;;;;;;;9.05;8.05;;;;;;;19.93;100.00;100462.88;5067506;28;20022;-67
2023/05/30 08:23:47;;;;;;;11.68;8.18;;;;;;;19.91;100.00;100454.91;5061656;28;20032;-67
2023/05/30 08:26:12;;;;;;;10.15;7.72;;;;;;;19.92;100.00;100456.56;5063086;28;20416;-67
2023/05/30 08:28:38;;;;;;;13.07;8.00;;;;;;;19.96;100.00;100457.88;5070926;28;20028;-66
2023/05/30 08:31:04;;;;;;;11.63;8.35;;;;;;;19.96;100.00;100457.88;5070405;28;20028;-66
2023/05/30 08:33:30;;;;;;;10.57;8.30;;;;;;;20.00;100.00;100452.91;5061556;28;20032;-67
2023/05/30 08:35:55;;;;;;;15.73;8.27;;;;;;;20.00;100.00;100456.44;5071952;28;20154;-66
2023/05/30 08:38:21;;;;;;;10.15;7.72;;;;;;;20.01;100.00;100463.59;5071658;28;20036;-67
2023/05/30 08:40:46;;;;;;;12.55;8.60;;;;;;;20.07;100.00;100475.59;5066825;28;20498;-67
2023/05/30 08:43:12;;;;;;;10.98;7.95;;;;;;;20.01;100.00;100462.75;5077047;28;20450;-67
2023/05/30 08:45:38;;;;;;;11.32;8.20;;;;;;;20.05;100.00;100467.63;5082412;28;20020;-66
2023/05/30 08:48:06;;;;;;;9.68;8.07;;;;;;;20.08;100.00;100474.56;5080952;28;20097;-67
2023/05/30 08:50:35;;;;;;;13.85;8.02;;;;;;;20.09;100.00;100479.00;5071674;28;20036;-66
2023/05/30 08:53:09;;;;;;;10.02;7.32;;;;;;;20.09;100.00;100489.88;5070221;28;20025;-66
2023/05/30 08:55:48;;;;;;;10.02;7.93;;;;;;;20.01;99.67;100477.22;5070241;28;20044;-67
2023/05/30 08:58:27;;;;;;;10.05;7.93;;;;;;;20.02;99.96;100483.50;5081786;28;20059;-67
2023/05/30 09:00:53;;;;;;;10.70;7.90;;;;;;;20.01;100.00;100479.94;5082066;28;20036;-66
2023/05/30 09:03:20;;;;;;;9.13;8.15;;;;;;;20.01;100.00;100477.22;5069564;28;20074;-66
2023/05/30 09:05:46;;;;;;;8.77;7.60;;;;;;;20.02;100.00;100492.50;5069683;28;20024;-66
2023/05/30 09:08:12;;;;;;;11.07;8.88;;;;;;;20.02;100.00;100505.28;5072549;28;20532;-66
2023/05/30 09:10:41;;;;;;;11.55;7.88;;;;;;;19.96;99.56;100506.88;5080248;28;20033;-66
2023/05/30 09:13:06;;;;;;;9.65;7.93;;;;;;;19.90;99.62;100488.59;5084828;28;20395;-66
2023/05/30 09:15:32;;;;;;;12.60;7.75;;;;;;;19.92;99.33;100502.88;5078274;28;20032;-66
2023/05/30 09:17:58;;;;;;;11.77;8.07;;;;;;;19.81;98.95;100495.19;5068584;28;20051;-66
2023/05/30 09:20:24;;;;;;;12.93;8.93;;;;;;;19.88;99.14;100509.72;5079348;28;20727;-66
2023/05/30 09:22:50;;;;;;;13.15;8.10;;;;;;;19.83;100.00;100509.44;5081462;28;20115;-66
2023/05/30 09:25:16;;;;;;;10.35;7.78;;;;;;;19.79;99.38;100499.97;5068370;28;20029;-66
2023/05/30 09:27:46;;;;;;;10.70;7.15;;;;;;;19.79;98.25;100508.13;5074332;28;20479;-66
2023/05/30 09:30:13;;;;;;;11.15;6.80;;;;;;;19.77;96.86;100506.66;5077858;28;20032;-67
2023/05/30 09:32:38;;;;;;;8.52;7.22;;;;;;;19.73;96.46;100506.16;5073414;28;20028;-77
2023/05/30 09:35:09;;;;;;;8.80;7.10;;;;;;;19.78;97.12;100520.06;5085668;28;20475;-77
2023/05/30 09:37:41;;;;;;;9.02;6.40;;;;;;;19.79;96.93;100515.44;5076565;28;20020;-76
2023/05/30 09:40:11;;;;;;;9.38;6.88;;;;;;;19.76;95.84;100516.69;5080850;28;20039;-76
2023/05/30 09:42:54;;;;;;;10.68;7.00;;;;;;;19.74;94.56;100515.19;5075846;28;20040;-76
2023/05/30 09:45:22;;;;;;;8.38;6.65;;;;;;;19.76;93.92;100511.22;5083232;28;20536;-76
2023/05/30 09:47:49;;;;;;;7.78;6.15;;;;;;;19.76;93.25;100507.66;5080488;28;20417;-76
2023/05/30 09:50:17;;;;;;;9.05;6.50;;;;;;;19.80;93.28;100509.81;5076252;28;20020;-67
2023/05/30 09:52:43;;;;;;;8.85;5.82;;;;;;;19.83;92.97;100506.72;5072645;28;20024;-67
2023/05/30 09:55:12;;;;;;;11.32;6.40;;;;;;;19.87;92.42;100504.47;5083649;28;20566;-67
2023/05/30 09:57:40;;;;;;;9.13;6.45;;;;;;;19.87;92.58;100502.56;5068755;28;20025;-67
2023/05/30 10:00:11;;;;;;;7.82;6.28;;;;;;;19.92;92.48;100511.03;5073832;28;20025;-76
2023/05/30 10:02:41;;;;;;;6.88;6.18;;;;;;;19.93;92.13;100506.44;5079776;28;20040;-75
2023/05/30 10:05:22;;;;;;;8.68;6.28;;;;;;;19.97;91.69;100505.03;5085264;28;20849;-76
2023/05/30 10:07:49;;;;;;;7.20;6.40;;;;;;;20.03;90.62;100512.44;5070128;28;20117;-76
2023/05/30 10:10:16;;;;;;;10.02;6.88;;;;;;;20.07;90.75;100513.72;5082413;28;20103;-76
2023/05/30 10:12:43;;;;;;;8.48;6.05;;;;;;;20.10;90.92;100511.47;5084324;28;20081;-76
2023/05/30 10:15:09;;;;;;;8.48;6.45;;;;;;;20.02;91.33;100491.66;5079002;28;20024;-76
2023/05/30 10:17:38;;;;;;;7.80;6.35;;;;;;;20.14;91.16;100520.97;5073595;28;20025;-76
2023/05/30 10:20:09;;;;;;;8.10;7.10;;;;;;;20.17;89.75;100512.44;5072401;28;20555;-76
2023/05/30 10:22:46;;;;;;;10.43;6.57;;;;;;;20.21;89.26;100517.50;5072776;28;20410;-76
2023/05/30 10:25:13;;;;;;;8.20;6.63;;;;;;;20.23;88.92;100512.69;5073810;28;20123;-67
2023/05/30 10:27:46;;;;;;;7.80;6.55;;;;;;;20.26;88.62;100510.44;5067177;28;20139;-68
2023/05/30 10:30:13;;;;;;;7.90;6.53;;;;;;;20.30;88.57;100508.16;5074016;28;20032;-67
2023/05/30 10:32:50;;;;;;;10.23;7.28;;;;;;;20.26;88.81;100488.63;5078110;28;20058;-67
2023/05/30 10:35:19;;;;;;;9.07;6.40;;;;;;;20.35;88.99;100502.97;5081468;28;20044;-67
2023/05/30 10:37:46;;;;;;;7.20;6.20;;;;;;;20.38;87.12;100497.16;5068627;28;20127;-67
2023/05/30 10:40:23;;;;;;;7.78;6.63;;;;;;;20.36;85.74;100494.63;5066546;28;20052;-67
2023/05/30 10:43:06;;;;;;;9.13;6.82;;;;;;;20.41;84.23;100496.78;5075371;28;20041;-67
2023/05/30 10:45:49;;;;;;;10.20;7.20;;;;;;;20.34;84.24;100487.69;5064506;28;20127;-67
2023/05/30 10:48:48;;;;;;;9.63;6.78;;;;;;;20.35;82.16;100489.38;5075096;28;20051;-67
2023/05/30 10:51:14;;;;;;;8.48;6.95;;;;;;;20.27;81.26;100473.97;5035389;28;20032;-67
2023/05/30 10:53:47;;;;;;;8.05;6.50;;;;;;;20.39;81.07;100490.66;5068965;28;20047;-67
2023/05/30 10:56:34;;;;;;;10.80;7.35;;;;;;;20.40;80.72;100484.16;5076686;28;20038;-67
2023/05/30 10:59:10;;;;;;;8.70;6.20;;;;;;;20.41;81.10;100469.53;5067888;28;20056;-67
2023/05/30 11:01:36;;;;;;;7.70;6.90;;;;;;;20.47;81.47;100474.19;5078179;28;20138;-67
2023/05/30 11:04:06;;;;;;;8.48;6.78;;;;;;;20.49;79.70;100474.81;5069811;28;20138;-67
2023/05/30 11:06:34;;;;;;;7.93;6.10;;;;;;;20.41;78.61;100450.44;5076465;28;20681;-67
2023/05/30 11:09:18;;;;;;;8.10;5.90;;;;;;;20.48;79.17;100456.81;5079963;28;20032;-67
2023/05/30 11:11:54;;;;;;;6.47;5.87;;;;;;;20.50;79.07;100452.00;5064611;28;20476;-66
2023/05/30 11:14:27;;;;;;;8.93;6.55;;;;;;;20.63;77.56;100458.41;5068831;28;21662;-67
2023/05/30 11:17:00;;;;;;;8.70;6.93;;;;;;;20.65;76.93;100450.03;5071119;28;20051;-67
2023/05/30 11:19:36;;;;;;;7.80;5.80;;;;;;;20.65;75.11;100429.09;5074717;28;20032;-75
2023/05/30 11:22:23;;;;;;;8.70;6.72;;;;;;;20.76;73.28;100444.88;5077876;28;20032;-67